Time;durP1;ratioP1;P1;durP2;ratioP2;P2;SDS_P1;SDS_P2;PMS_P1;PMS_P2;Temp;Humidity;BMP_temperature;BMP_pressure;BME280_temperature;BME280_humidity;BME280_pressure;Samples;Min_cycle;Max_cycle;Signal;HPM_P1;HPM_P2
2022/01/23 00:05:09;;;;;;;;;;;4.60;99.90;;;;;;5176408;27;19926;-81
2022/01/23 00:07:37;;;;;;;;;;;4.70;99.90;;;;;;5143667;27;19923;-82
2022/01/23 00:10:05;;;;;;;;;;;4.70;99.90;;;;;;5118367;28;19923;-84
2022/01/23 00:12:37;;;;;;;;;;;4.70;99.90;;;;;;5030442;28;19925;-82
2022/01/23 00:17:49;;;;;;;;;;;4.70;99.90;;;;;;4762426;29;19937;-88
2022/01/23 00:20:17;;;;;;;;;;;4.70;99.90;;;;;;4629000;30;19934;-85
2022/01/23 00:30:34;;;;;;;;;;;4.80;99.90;;;;;;5116661;27;19930;-85
2022/01/23 00:33:01;;;;;;;;;;;4.70;99.90;;;;;;5100034;28;19923;-83
2022/01/23 00:35:29;;;;;;;;;;;4.70;99.90;;;;;;5095517;28;19932;-86
2022/01/23 00:37:55;;;;;;;;;;;4.80;99.90;;;;;;5033374;28;19926;-87
2022/01/23 00:40:23;;;;;;;;;;;4.80;99.90;;;;;;4823485;28;19930;-86
2022/01/23 00:42:50;;;;;;;;;;;4.70;99.90;;;;;;4519936;30;19936;-88
2022/01/23 00:50:01;;;;;;;;;;;4.80;99.90;;;;;;5174251;27;19926;-83
2022/01/23 00:52:28;;;;;;;;;;;4.80;99.90;;;;;;5135916;27;19927;-84
2022/01/23 00:54:55;;;;;;;;;;;4.80;99.90;;;;;;5128019;27;19931;-82
2022/01/23 00:57:22;;;;;;;;;;;4.80;99.90;;;;;;5109434;28;19959;-86
2022/01/23 00:59:49;;;;;;;;;;;4.90;99.90;;;;;;5050902;28;19926;-81
2022/01/23 01:02:16;;;;;;;;;;;4.90;99.90;;;;;;4851982;29;19946;-83
2022/01/23 01:04:42;;;;;;;;;;;4.90;99.90;;;;;;4654740;30;19940;-78
2022/01/23 01:11:58;;;;;;;;;;;4.90;99.90;;;;;;5168705;27;19926;-81
2022/01/23 01:14:42;;;;;;;;;;;5.00;99.90;;;;;;5081926;28;19931;-84
2022/01/23 01:33:44;;;;;;;;;;;5.00;99.90;;;;;;5174124;27;19926;-85
2022/01/23 01:36:20;;;;;;;;;;;5.10;99.90;;;;;;5117198;27;19938;-81
2022/01/23 01:38:48;;;;;;;;;;;5.00;99.90;;;;;;5047039;28;19924;-80
2022/01/23 01:41:18;;;;;;;;;;;5.10;99.90;;;;;;5015925;28;19926;-78
2022/01/23 01:43:45;;;;;;;;;;;5.10;99.90;;;;;;4963761;28;19929;-80
2022/01/23 01:46:12;;;;;;;;;;;5.10;99.90;;;;;;4787930;29;19954;-84
2022/01/23 01:48:45;;;;;;;;;;;5.10;99.90;;;;;;4574331;30;19943;-81
2022/01/23 01:56:15;;;;;;;;;;;5.00;99.90;;;;;;5173809;27;19926;-83
2022/01/23 01:59:14;;;;;;;;;;;5.10;99.90;;;;;;5137421;27;19923;-84
2022/01/23 02:10:16;;;;;;;;;;;5.10;99.90;;;;;;4691999;30;19960;-84
2022/01/23 02:25:28;;;;;;;;;;;5.00;99.90;;;;;;4970285;28;19926;-83
2022/01/23 02:52:55;;;;;;;;;;;5.20;99.90;;;;;;4549683;31;19935;-84
2022/01/23 02:55:26;;;;;;;;;;;5.20;99.90;;;;;;4388739;32;19944;-87
2022/01/23 03:03:02;;;;;;;;;;;5.20;99.90;;;;;;5153428;27;19926;-86
2022/01/23 03:05:40;;;;;;;;;;;5.20;99.90;;;;;;5106588;28;19924;-82
2022/01/23 03:08:21;;;;;;;;;;;5.20;99.90;;;;;;5084046;28;19931;-83
2022/01/23 03:10:59;;;;;;;;;;;5.20;99.90;;;;;;5028272;28;19933;-85
2022/01/23 03:16:27;;;;;;;;;;;5.20;99.90;;;;;;4595353;30;19957;-84
2022/01/23 03:25:22;;;;;;;;;;;5.20;99.90;;;;;;5094044;28;19931;-79
2022/01/23 03:28:05;;;;;;;;;;;5.20;99.90;;;;;;5081530;28;19925;-81
2022/01/23 03:30:37;;;;;;;;;;;5.20;99.90;;;;;;5027854;28;19933;-81
2022/01/23 03:33:04;;;;;;;;;;;5.30;99.90;;;;;;4930140;28;19935;-82
2022/01/23 03:35:31;;;;;;;;;;;5.30;99.90;;;;;;4718740;29;19947;-84
2022/01/23 03:40:50;;;;;;;;;;;5.20;99.90;;;;;;5173578;27;19929;-78
2022/01/23 03:43:25;;;;;;;;;;;5.30;99.90;;;;;;5128323;27;19924;-77
2022/01/23 03:46:09;;;;;;;;;;;5.20;99.90;;;;;;5085635;28;19925;-78
2022/01/23 03:51:21;;;;;;;;;;;5.20;99.90;;;;;;4902192;28;19929;-79
2022/01/23 03:53:50;;;;;;;;;;;5.20;99.90;;;;;;4685676;30;19934;-80
2022/01/23 03:56:19;;;;;;;;;;;5.20;99.90;;;;;;4494939;31;19938;-80
2022/01/23 04:04:02;;;;;;;;;;;5.10;99.90;;;;;;5174572;27;19926;-78
2022/01/23 04:06:29;;;;;;;;;;;5.20;99.90;;;;;;5117155;27;19930;-80
2022/01/23 04:08:56;;;;;;;;;;;5.10;99.90;;;;;;5128107;28;19924;-78
2022/01/23 04:11:22;;;;;;;;;;;5.10;99.90;;;;;;5070847;28;19932;-78
2022/01/23 04:13:55;;;;;;;;;;;5.10;99.90;;;;;;5035541;28;19936;-83
2022/01/23 04:16:49;;;;;;;;;;;5.10;99.90;;;;;;4875584;28;19947;-82
2022/01/23 04:19:35;;;;;;;;;;;5.10;99.90;;;;;;4489535;31;19938;-84
2022/01/23 04:33:15;;;;;;;;;;;5.10;99.90;;;;;;5086996;28;19924;-80
2022/01/23 04:45:10;;;;;;;;;;;5.10;99.90;;;;;;5012686;28;19933;-82
2022/01/23 05:00:23;;;;;;;;;;;5.10;99.90;;;;;;4867558;28;19937;-83
2022/01/23 05:03:39;;;;;;;;;;;5.10;99.90;;;;;;4656089;30;19941;-79
2022/01/23 05:06:11;;;;;;;;;;;5.10;99.90;;;;;;4361543;31;19940;-80
2022/01/23 05:13:34;;;;;;;;;;;5.10;99.90;;;;;;5181341;27;19925;-79
2022/01/23 05:16:01;;;;;;;;;;;5.00;99.90;;;;;;5145666;27;19987;-80
2022/01/23 05:18:27;;;;;;;;;;;5.00;99.90;;;;;;5135414;28;19932;-80
2022/01/23 05:21:04;;;;;;;;;;;5.00;99.90;;;;;;5086328;28;19912;-83
2022/01/23 05:23:31;;;;;;;;;;;5.00;99.90;;;;;;4960663;28;19928;-77
2022/01/23 05:25:58;;;;;;;;;;;5.00;99.90;;;;;;4800987;29;19939;-84
2022/01/23 05:28:24;;;;;;;;;;;5.10;99.90;;;;;;4631518;30;19934;-83
2022/01/23 05:35:55;;;;;;;;;;;5.00;99.90;;;;;;5173996;27;19926;-85
2022/01/23 05:38:23;;;;;;;;;;;5.10;99.90;;;;;;5136877;27;19930;-82
2022/01/23 05:40:56;;;;;;;;;;;5.10;99.90;;;;;;5126701;27;19938;-85
2022/01/23 05:43:23;;;;;;;;;;;5.00;99.90;;;;;;5081187;28;19925;-81
2022/01/23 05:45:50;;;;;;;;;;;5.00;99.90;;;;;;4996708;28;19935;-81
2022/01/23 05:48:49;;;;;;;;;;;5.00;99.90;;;;;;4724828;29;19947;-79
2022/01/23 05:54:23;;;;;;;;;;;5.00;99.90;;;;;;5173796;27;19927;-84
2022/01/23 05:57:13;;;;;;;;;;;5.00;99.90;;;;;;5130144;27;19928;-84
2022/01/23 05:59:47;;;;;;;;;;;5.00;99.90;;;;;;5115517;27;19927;-81
2022/01/23 06:02:14;;;;;;;;;;;5.00;99.90;;;;;;5093653;28;19924;-82
2022/01/23 06:04:41;;;;;;;;;;;5.00;99.90;;;;;;5048326;28;19926;-84
2022/01/23 06:07:18;;;;;;;;;;;5.00;99.90;;;;;;4853531;28;19929;-84
2022/01/23 06:10:00;;;;;;;;;;;5.00;99.90;;;;;;4608126;30;19936;-84
2022/01/23 06:17:06;;;;;;;;;;;5.00;99.90;;;;;;5180599;27;19941;-79
2022/01/23 06:19:51;;;;;;;;;;;5.00;99.90;;;;;;5130847;27;19931;-85
2022/01/23 06:22:36;;;;;;;;;;;5.00;99.90;;;;;;5077494;28;19947;-83
2022/01/23 06:25:05;;;;;;;;;;;5.00;99.90;;;;;;5033325;28;19926;-83
2022/01/23 06:27:40;;;;;;;;;;;5.00;99.90;;;;;;4902506;28;19932;-81
2022/01/23 06:30:07;;;;;;;;;;;5.00;99.90;;;;;;4693897;29;19933;-84
2022/01/23 06:32:36;;;;;;;;;;;5.00;99.90;;;;;;4524395;31;19937;-84
2022/01/23 06:39:34;;;;;;;;;;;5.10;99.90;;;;;;5173703;27;19926;-81
2022/01/23 06:42:02;;;;;;;;;;;5.10;99.90;;;;;;5108285;28;19924;-86
2022/01/23 06:44:42;;;;;;;;;;;5.10;99.90;;;;;;5111788;27;19925;-88
2022/01/23 06:47:12;;;;;;;;;;;5.10;99.90;;;;;;5104003;28;19916;-79
2022/01/23 06:49:39;;;;;;;;;;;5.00;99.90;;;;;;4988855;28;19928;-82
2022/01/23 06:52:06;;;;;;;;;;;5.00;99.90;;;;;;4843140;29;19929;-85
2022/01/23 06:54:36;;;;;;;;;;;5.10;99.90;;;;;;4552005;30;19944;-80
2022/01/23 07:02:03;;;;;;;;;;;5.00;99.90;;;;;;5160279;27;19926;-82
2022/01/23 07:04:56;;;;;;;;;;;5.10;99.90;;;;;;5064676;28;19924;-80
2022/01/23 07:07:37;;;;;;;;;;;5.10;99.90;;;;;;5066102;28;19944;-81
2022/01/23 07:10:23;;;;;;;;;;;5.10;99.90;;;;;;5046603;28;19925;-82
2022/01/23 07:13:26;;;;;;;;;;;5.10;99.90;;;;;;4907483;28;19937;-83
2022/01/23 07:16:06;;;;;;;;;;;5.10;99.90;;;;;;4612906;30;19935;-85
2022/01/23 07:21:33;;;;;;;;;;;5.10;99.90;;;;;;5165200;27;19927;-82
2022/01/23 07:24:00;;;;;;;;;;;5.10;99.90;;;;;;5103639;28;19923;-83
2022/01/23 07:26:27;;;;;;;;;;;5.10;99.90;;;;;;5074318;28;19939;-80
2022/01/23 07:29:02;;;;;;;;;;;5.20;99.90;;;;;;5066976;28;19936;-81
2022/01/23 07:31:56;;;;;;;;;;;5.20;99.90;;;;;;4993154;28;19995;-81
2022/01/23 07:34:23;;;;;;;;;;;5.20;99.90;;;;;;4785341;29;19930;-80
2022/01/23 07:36:51;;;;;;;;;;;5.20;99.90;;;;;;4586920;30;19936;-82
2022/01/23 07:44:50;;;;;;;;;;;5.20;99.90;;;;;;5180518;27;19925;-83
2022/01/23 07:47:46;;;;;;;;;;;5.20;99.90;;;;;;5087420;28;19930;-83
2022/01/23 07:50:24;;;;;;;;;;;5.30;99.90;;;;;;5104154;28;19924;-81
2022/01/23 07:53:04;;;;;;;;;;;5.30;99.90;;;;;;5052722;28;19925;-81
2022/01/23 07:55:49;;;;;;;;;;;5.30;99.90;;;;;;4912615;28;19928;-82
2022/01/23 07:58:34;;;;;;;;;;;5.30;99.90;;;;;;4632964;30;19941;-81
2022/01/23 08:03:47;;;;;;;;;;;5.40;99.90;;;;;;5156244;27;19926;-83
2022/01/23 08:06:16;;;;;;;;;;;5.40;99.90;;;;;;5077022;28;19931;-82
2022/01/23 08:08:43;;;;;;;;;;;5.40;99.90;;;;;;5108319;27;19915;-84
2022/01/23 08:11:27;;;;;;;;;;;5.50;99.90;;;;;;5090381;28;19913;-85
2022/01/23 08:13:54;;;;;;;;;;;5.50;99.90;;;;;;5004526;28;19927;-80
2022/01/23 08:16:20;;;;;;;;;;;5.50;99.90;;;;;;4874138;29;19937;-84
2022/01/23 08:18:48;;;;;;;;;;;5.60;99.90;;;;;;4584599;30;19935;-85
2022/01/23 08:26:14;;;;;;;;;;;5.80;99.90;;;;;;5174714;27;19926;-82
2022/01/23 08:28:41;;;;;;;;;;;5.80;99.90;;;;;;5122208;27;19996;-82
2022/01/23 08:31:08;;;;;;;;;;;5.90;99.90;;;;;;5131566;27;19932;-84
2022/01/23 08:33:34;;;;;;;;;;;5.90;99.90;;;;;;5101901;28;19924;-81
2022/01/23 08:36:02;;;;;;;;;;;6.00;99.90;;;;;;5038947;28;19927;-88
2022/01/23 08:38:28;;;;;;;;;;;5.90;99.90;;;;;;4814579;29;19931;-85
2022/01/23 08:48:27;;;;;;;;;;;6.00;99.90;;;;;;5173639;27;19926;-85
2022/01/23 08:50:53;;;;;;;;;;;6.00;99.90;;;;;;5133791;27;19924;-82
2022/01/23 08:53:20;;;;;;;;;;;6.00;99.90;;;;;;5133379;27;19930;-82
2022/01/23 08:55:47;;;;;;;;;;;5.90;99.90;;;;;;5107904;28;19931;-84
2022/01/23 08:58:16;;;;;;;;;;;5.90;99.90;;;;;;4991113;28;19927;-88
2022/01/23 09:00:43;;;;;;;;;;;5.90;99.90;;;;;;4783444;29;19931;-86
2022/01/23 09:03:10;;;;;;;;;;;5.80;99.90;;;;;;4520640;30;19937;-83
2022/01/23 09:10:53;;;;;;;;;;;5.90;99.90;;;;;;5171959;27;19926;-87
2022/01/23 09:13:31;;;;;;;;;;;6.00;99.90;;;;;;5114982;27;19931;-90
2022/01/23 09:15:58;;;;;;;;;;;6.00;99.90;;;;;;5085598;28;19936;-89
2022/01/23 09:18:25;;;;;;;;;;;6.10;99.90;;;;;;5019255;28;19926;-89
2022/01/23 09:20:52;;;;;;;;;;;6.20;99.90;;;;;;4847177;29;19930;-87
2022/01/23 09:23:19;;;;;;;;;;;6.20;99.90;;;;;;4685187;30;19933;-83
2022/01/23 09:25:47;;;;;;;;;;;6.20;99.90;;;;;;4490640;30;19944;-88
2022/01/23 09:31:57;;;;;;;;;;;6.20;99.90;;;;;;5165834;27;19926;-80
2022/01/23 09:34:25;;;;;;;;;;;6.40;99.90;;;;;;5146694;27;19924;-84
2022/01/23 09:36:53;;;;;;;;;;;6.60;99.90;;;;;;5139155;27;19918;-83
2022/01/23 09:39:20;;;;;;;;;;;6.70;99.90;;;;;;5114800;28;19935;-82
2022/01/23 09:41:49;;;;;;;;;;;6.80;99.90;;;;;;5007424;28;19927;-82
2022/01/23 09:44:16;;;;;;;;;;;6.70;99.90;;;;;;4841428;29;19930;-84
2022/01/23 09:46:44;;;;;;;;;;;6.70;99.90;;;;;;4581505;29;19943;-85
2022/01/23 09:52:56;;;;;;;;;;;6.50;99.90;;;;;;5165975;27;19929;-82
2022/01/23 09:55:22;;;;;;;;;;;6.50;99.90;;;;;;5119972;28;19923;-81
2022/01/23 09:57:49;;;;;;;;;;;6.50;99.90;;;;;;5094350;28;19932;-80
2022/01/23 10:00:17;;;;;;;;;;;6.50;99.90;;;;;;5085202;28;19931;-82
2022/01/23 10:02:46;;;;;;;;;;;6.60;99.90;;;;;;5039033;28;19930;-82
2022/01/23 10:05:13;;;;;;;;;;;6.70;99.90;;;;;;4827961;29;19942;-86
2022/01/23 10:07:41;;;;;;;;;;;7.00;99.90;;;;;;4502827;30;19948;-83
2022/01/23 10:15:13;;;;;;;;;;;6.90;99.90;;;;;;5181302;27;19925;-85
2022/01/23 10:17:40;;;;;;;;;;;6.90;99.90;;;;;;5124691;27;19934;-82
2022/01/23 10:20:08;;;;;;;;;;;6.90;99.90;;;;;;5132632;27;19931;-84
2022/01/23 10:22:36;;;;;;;;;;;6.80;99.90;;;;;;5076936;28;19924;-84
2022/01/23 10:25:07;;;;;;;;;;;6.80;99.90;;;;;;5022459;28;20006;-81
2022/01/23 10:27:52;;;;;;;;;;;6.80;99.90;;;;;;4956756;28;19928;-85
2022/01/23 10:30:21;;;;;;;;;;;6.70;99.90;;;;;;4742933;29;19933;-81
2022/01/23 10:35:51;;;;;;;;;;;6.90;99.90;;;;;;5166402;27;19926;-81
2022/01/23 10:38:18;;;;;;;;;;;6.90;99.90;;;;;;5105918;28;19924;-82
2022/01/23 10:40:50;;;;;;;;;;;6.90;99.90;;;;;;5083068;28;19925;-80
2022/01/23 10:48:45;;;;;;;;;;;6.90;99.90;;;;;;4742792;29;19939;-83
2022/01/23 10:51:14;;;;;;;;;;;7.00;99.90;;;;;;4356081;31;19941;-85
2022/01/23 10:58:56;;;;;;;;;;;7.10;99.90;;;;;;5196408;27;19910;-79
2022/01/23 11:01:23;;;;;;;;;;;7.10;99.90;;;;;;5142694;27;19930;-80
2022/01/23 11:04:02;;;;;;;;;;;7.20;99.90;;;;;;5146305;27;19924;-85
2022/01/23 11:06:29;;;;;;;;;;;7.30;99.90;;;;;;5113559;28;19923;-84
2022/01/23 11:09:06;;;;;;;;;;;7.30;99.90;;;;;;5016401;28;19926;-81
2022/01/23 11:11:39;;;;;;;;;;;7.30;99.90;;;;;;4782263;29;19930;-85
2022/01/23 11:22:17;;;;;;;;;;;7.00;99.90;;;;;;5161465;27;19941;-84
2022/01/23 11:24:45;;;;;;;;;;;7.30;99.90;;;;;;5114111;28;19924;-85
2022/01/23 11:27:13;;;;;;;;;;;7.40;99.90;;;;;;5116208;28;19930;-83
2022/01/23 11:29:52;;;;;;;;;;;7.40;99.90;;;;;;5078146;28;19932;-81
2022/01/23 11:32:19;;;;;;;;;;;7.50;99.90;;;;;;4987797;28;19927;-84
2022/01/23 11:34:46;;;;;;;;;;;7.70;99.90;;;;;;4827083;29;19936;-81
2022/01/23 11:37:13;;;;;;;;;;;7.80;99.90;;;;;;4658794;30;19934;-81
2022/01/23 11:50:45;;;;;;;;;;;7.90;99.90;;;;;;5021891;28;19925;-86
2022/01/23 11:53:46;;;;;;;;;;;7.80;99.90;;;;;;4963164;28;19934;-83
2022/01/23 11:56:35;;;;;;;;;;;7.80;99.90;;;;;;4849960;29;20000;-82
2022/01/23 11:59:17;;;;;;;;;;;7.70;99.90;;;;;;4568580;30;19942;-80
2022/01/23 12:04:33;;;;;;;;;;;7.50;99.90;;;;;;5175173;27;19926;-84
2022/01/23 12:07:17;;;;;;;;;;;7.50;99.90;;;;;;5102454;27;19924;-82
2022/01/23 12:10:04;;;;;;;;;;;7.70;99.90;;;;;;5082585;28;19924;-84
2022/01/23 12:12:38;;;;;;;;;;;8.00;99.90;;;;;;4995184;28;19934;-85
2022/01/23 12:18:12;;;;;;;;;;;7.90;99.90;;;;;;4703714;29;19933;-85
2022/01/23 12:20:40;;;;;;;;;;;7.80;99.90;;;;;;4351400;31;19942;-84
2022/01/23 12:27:23;;;;;;;;;;;7.50;99.90;;;;;;5194376;27;19986;-83
2022/01/23 12:29:53;;;;;;;;;;;7.50;99.90;;;;;;5124977;27;19923;-85
2022/01/23 12:32:26;;;;;;;;;;;7.50;99.90;;;;;;5104885;28;19923;-83
2022/01/23 12:34:57;;;;;;;;;;;7.50;99.90;;;;;;5071633;28;19934;-83
2022/01/23 12:37:24;;;;;;;;;;;7.40;99.90;;;;;;5011182;28;19937;-86
2022/01/23 12:40:10;;;;;;;;;;;7.50;99.90;;;;;;4889870;28;19930;-84
2022/01/23 12:42:55;;;;;;;;;;;7.40;99.90;;;;;;4569196;30;19936;-84
2022/01/23 12:50:11;;;;;;;;;;;7.50;99.90;;;;;;5172122;27;19926;-82
2022/01/23 12:52:48;;;;;;;;;;;7.60;99.90;;;;;;5096156;28;19925;-81
2022/01/23 12:55:18;;;;;;;;;;;7.60;99.90;;;;;;5060713;28;19925;-84
2022/01/23 12:57:45;;;;;;;;;;;7.50;99.90;;;;;;4998505;28;19930;-83
2022/01/23 13:00:18;;;;;;;;;;;7.50;99.90;;;;;;4893879;28;19937;-83
2022/01/23 13:02:47;;;;;;;;;;;7.50;99.90;;;;;;4679186;30;19932;-84
2022/01/23 13:05:16;;;;;;;;;;;7.40;99.90;;;;;;4571968;30;19942;-84
2022/01/23 13:12:56;;;;;;;;;;;7.20;99.90;;;;;;5154281;27;19926;-85
2022/01/23 13:18:15;;;;;;;;;;;7.20;99.90;;;;;;5071957;28;19931;-85
2022/01/23 13:26:42;;;;;;;;;;;7.20;99.90;;;;;;4672202;29;19934;-89
2022/01/23 13:34:26;;;;;;;;;;;7.30;99.90;;;;;;5173895;27;19926;-84
2022/01/23 13:36:54;;;;;;;;;;;7.20;99.90;;;;;;5116052;27;19930;-86
2022/01/23 13:39:22;;;;;;;;;;;7.20;99.90;;;;;;5120050;28;19924;-83
2022/01/23 13:41:59;;;;;;;;;;;7.10;99.90;;;;;;5046627;28;19925;-80
2022/01/23 13:58:22;;;;;;;;;;;7.20;99.90;;;;;;5186875;27;19930;-81
2022/01/23 14:00:56;;;;;;;;;;;7.30;99.90;;;;;;5098540;28;19924;-84
2022/01/23 14:03:23;;;;;;;;;;;7.20;99.90;;;;;;5072200;28;19932;-81
2022/01/23 14:05:50;;;;;;;;;;;7.30;99.90;;;;;;5006520;28;19933;-83
2022/01/23 14:08:18;;;;;;;;;;;7.20;99.90;;;;;;4884851;29;19929;-87
2022/01/23 14:10:52;;;;;;;;;;;7.20;99.90;;;;;;4694726;30;19939;-88
2022/01/23 14:13:19;;;;;;;;;;;7.10;99.90;;;;;;4493795;30;19940;-86
2022/01/23 14:20:06;;;;;;;;;;;7.10;99.90;;;;;;5177594;27;19926;-88
2022/01/23 14:22:33;;;;;;;;;;;7.10;99.90;;;;;;5129756;27;19924;-89
2022/01/23 14:25:16;;;;;;;;;;;7.00;99.90;;;;;;5086043;28;19974;-83
2022/01/23 14:27:44;;;;;;;;;;;7.00;99.90;;;;;;5050629;28;19929;-83
2022/01/23 14:30:14;;;;;;;;;;;7.00;99.90;;;;;;4932841;28;19928;-86
2022/01/23 14:32:44;;;;;;;;;;;7.10;99.90;;;;;;4777115;29;19931;-83
2022/01/23 14:35:13;;;;;;;;;;;7.00;99.90;;;;;;4497446;30;19945;-83
2022/01/23 14:42:58;;;;;;;;;;;6.90;99.90;;;;;;5146288;27;19925;-85
2022/01/23 14:45:25;;;;;;;;;;;6.80;99.90;;;;;;5061581;28;19925;-84
2022/01/23 14:47:52;;;;;;;;;;;6.80;99.90;;;;;;5047114;28;19929;-84
2022/01/23 14:50:20;;;;;;;;;;;6.80;99.90;;;;;;5022119;28;19926;-85
2022/01/23 14:52:48;;;;;;;;;;;6.80;99.90;;;;;;4949282;28;19934;-84
2022/01/23 14:55:14;;;;;;;;;;;6.70;99.90;;;;;;4803317;29;19930;-82
2022/01/23 14:57:41;;;;;;;;;;;6.80;99.90;;;;;;4505745;30;19941;-83
2022/01/23 15:05:13;;;;;;;;;;;6.70;99.90;;;;;;5155091;27;19927;-85
2022/01/23 15:07:41;;;;;;;;;;;6.70;99.90;;;;;;5123781;28;19939;-86
2022/01/23 15:10:09;;;;;;;;;;;6.70;99.90;;;;;;5132224;27;19923;-86
2022/01/23 15:12:36;;;;;;;;;;;6.60;99.90;;;;;;5100572;28;19916;-80
2022/01/23 15:15:03;;;;;;;;;;;6.60;99.90;;;;;;5024827;28;19925;-83
2022/01/23 15:17:29;;;;;;;;;;;6.60;99.90;;;;;;4857170;29;19936;-83
2022/01/23 15:19:56;;;;;;;;;;;6.60;99.90;;;;;;4596193;29;19936;-83
2022/01/23 15:27:29;;;;;;;;;;;6.70;99.90;;;;;;5165195;27;19927;-85
2022/01/23 15:29:55;;;;;;;;;;;6.70;99.90;;;;;;5108646;28;19931;-87
2022/01/23 15:32:22;;;;;;;;;;;6.60;99.90;;;;;;5056732;28;19932;-83
2022/01/23 15:34:50;;;;;;;;;;;6.60;99.90;;;;;;5064163;28;19932;-84
2022/01/23 15:37:17;;;;;;;;;;;6.70;99.90;;;;;;4953046;28;19934;-83
2022/01/23 15:39:43;;;;;;;;;;;6.70;99.90;;;;;;4725682;30;19932;-82
2022/01/23 15:42:10;;;;;;;;;;;6.70;99.90;;;;;;4515781;31;19949;-86
2022/01/23 15:49:43;;;;;;;;;;;6.60;99.90;;;;;;5175719;27;19926;-82
2022/01/23 15:52:11;;;;;;;;;;;6.60;99.90;;;;;;5131701;27;19947;-83
2022/01/23 15:54:38;;;;;;;;;;;6.50;99.90;;;;;;5112719;27;19930;-84
2022/01/23 15:57:06;;;;;;;;;;;6.50;99.90;;;;;;5110405;28;19951;-84
2022/01/23 15:59:35;;;;;;;;;;;6.60;99.90;;;;;;5041491;28;19933;-82
2022/01/23 16:02:02;;;;;;;;;;;6.50;99.90;;;;;;4943678;28;19939;-84
2022/01/23 16:04:32;;;;;;;;;;;6.50;99.90;;;;;;4700307;29;19955;-81
2022/01/23 16:12:04;;;;;;;;;;;6.40;99.90;;;;;;5161118;27;19926;-81
2022/01/23 16:14:31;;;;;;;;;;;6.40;99.90;;;;;;5117116;27;19930;-82
2022/01/23 16:16:58;;;;;;;;;;;6.30;99.90;;;;;;5094966;28;19931;-83
2022/01/23 16:19:24;;;;;;;;;;;6.40;99.90;;;;;;5043316;28;19926;-85
2022/01/23 16:21:54;;;;;;;;;;;6.20;99.90;;;;;;4947933;28;19928;-85
2022/01/23 16:24:22;;;;;;;;;;;6.40;99.90;;;;;;4705066;29;19933;-83
2022/01/23 16:26:49;;;;;;;;;;;6.30;99.90;;;;;;4411316;31;19947;-82
2022/01/23 16:34:02;;;;;;;;;;;6.30;99.90;;;;;;5178086;27;19925;-88
2022/01/23 16:36:31;;;;;;;;;;;6.20;99.90;;;;;;5146791;27;19934;-82
2022/01/23 16:38:59;;;;;;;;;;;6.30;99.90;;;;;;5121093;27;19924;-90
2022/01/23 16:41:26;;;;;;;;;;;6.20;99.90;;;;;;5122005;28;19924;-82
2022/01/23 16:43:53;;;;;;;;;;;6.20;99.90;;;;;;5035930;28;19926;-85
2022/01/23 16:46:21;;;;;;;;;;;6.20;99.90;;;;;;4833688;29;19931;-85
2022/01/23 16:48:48;;;;;;;;;;;6.30;99.90;;;;;;4483039;30;19939;-86
2022/01/23 16:56:20;;;;;;;;;;;6.20;99.90;;;;;;5154446;27;19942;-85
2022/01/23 16:58:46;;;;;;;;;;;6.20;99.90;;;;;;5098546;27;19924;-83
2022/01/23 17:01:14;;;;;;;;;;;6.20;99.90;;;;;;5111476;28;19932;-83
2022/01/23 17:03:40;;;;;;;;;;;6.30;99.90;;;;;;5077755;28;19925;-83
2022/01/23 17:06:08;;;;;;;;;;;6.20;99.90;;;;;;4950530;28;19951;-89
2022/01/23 17:08:36;;;;;;;;;;;6.20;99.90;;;;;;4812835;29;19929;-87
2022/01/23 17:11:07;;;;;;;;;;;6.20;99.90;;;;;;4681677;30;19934;-90
2022/01/23 17:23:01;;;;;;;;;;;6.20;99.90;;;;;;5174215;27;19926;-86
2022/01/23 17:25:31;;;;;;;;;;;6.30;99.90;;;;;;5132734;27;19923;-87
2022/01/23 17:28:00;;;;;;;;;;;6.30;99.90;;;;;;5136735;27;19923;-86
2022/01/23 17:30:30;;;;;;;;;;;6.20;99.90;;;;;;5138007;27;19923;-87
2022/01/23 17:32:59;;;;;;;;;;;6.30;99.90;;;;;;5084311;28;19925;-87
2022/01/23 17:35:27;;;;;;;;;;;6.20;99.90;;;;;;4946231;28;19928;-85
2022/01/23 17:38:10;;;;;;;;;;;6.30;99.90;;;;;;4811801;29;19929;-84
2022/01/23 17:40:41;;;;;;;;;;;6.30;99.90;;;;;;4573969;30;19935;-89
2022/01/23 17:46:08;;;;;;;;;;;6.30;99.90;;;;;;5175629;27;19930;-81
2022/01/23 17:48:51;;;;;;;;;;;6.20;99.90;;;;;;5130366;27;19931;-86
2022/01/23 17:51:17;;;;;;;;;;;6.20;99.90;;;;;;5113654;28;19924;-85
2022/01/23 17:53:52;;;;;;;;;;;6.20;99.90;;;;;;5097969;28;19924;-86
2022/01/23 17:59:12;;;;;;;;;;;6.20;99.90;;;;;;4947240;28;19934;-82
2022/01/23 18:01:40;;;;;;;;;;;6.20;99.90;;;;;;4866492;29;19935;-82
2022/01/23 18:08:44;;;;;;;;;;;6.30;99.90;;;;;;5187034;27;19925;-82
2022/01/23 18:11:11;;;;;;;;;;;6.30;99.90;;;;;;5126628;28;19924;-85
2022/01/23 18:13:43;;;;;;;;;;;6.30;99.90;;;;;;5118766;27;19932;-85
2022/01/23 18:16:10;;;;;;;;;;;6.20;99.90;;;;;;5108650;28;19923;-82
2022/01/23 18:18:37;;;;;;;;;;;6.30;99.90;;;;;;5016202;28;19966;-83
2022/01/23 18:21:04;;;;;;;;;;;6.30;99.90;;;;;;4891508;28;19928;-88
2022/01/23 18:23:31;;;;;;;;;;;6.30;99.90;;;;;;4657997;30;19934;-89
2022/01/23 18:31:05;;;;;;;;;;;6.40;99.90;;;;;;5169891;27;19942;-85
2022/01/23 18:33:31;;;;;;;;;;;6.30;99.90;;;;;;5117539;27;19930;-86
2022/01/23 18:35:58;;;;;;;;;;;6.30;99.90;;;;;;5117213;27;19931;-84
2022/01/23 18:38:24;;;;;;;;;;;6.30;99.90;;;;;;5081249;28;19925;-90
2022/01/23 18:40:51;;;;;;;;;;;6.30;99.90;;;;;;4974366;28;19939;-90
2022/01/23 18:43:19;;;;;;;;;;;6.30;99.90;;;;;;4750689;29;19931;-86
2022/01/23 18:45:46;;;;;;;;;;;6.30;99.90;;;;;;4493865;30;19938;-84
2022/01/23 18:52:57;;;;;;;;;;;6.30;99.90;;;;;;5156992;27;19925;-83
2022/01/23 18:55:26;;;;;;;;;;;6.30;99.90;;;;;;5101456;27;19931;-83
2022/01/23 18:58:03;;;;;;;;;;;6.20;99.90;;;;;;5094680;28;19924;-80
2022/01/23 19:00:31;;;;;;;;;;;6.20;99.90;;;;;;5022865;28;19925;-85
2022/01/23 19:03:00;;;;;;;;;;;6.20;99.90;;;;;;4952122;28;19927;-80
2022/01/23 19:05:30;;;;;;;;;;;6.20;99.90;;;;;;4768672;29;19939;-90
2022/01/23 19:08:02;;;;;;;;;;;6.20;99.90;;;;;;4514422;30;19937;-82
2022/01/23 19:13:10;;;;;;;;;;;6.20;99.90;;;;;;5185498;27;19913;-87
2022/01/23 19:15:37;;;;;;;;;;;6.20;99.90;;;;;;5133405;27;19930;-82
2022/01/23 19:18:03;;;;;;;;;;;6.30;99.90;;;;;;5096558;28;19924;-84
2022/01/23 19:20:30;;;;;;;;;;;6.20;99.90;;;;;;5093839;27;19935;-81
2022/01/23 19:22:58;;;;;;;;;;;6.30;99.90;;;;;;5037296;28;19937;-85
2022/01/23 19:25:25;;;;;;;;;;;6.30;99.90;;;;;;4848841;29;19914;-83
2022/01/23 19:27:53;;;;;;;;;;;6.20;99.90;;;;;;4668752;30;19928;-81
2022/01/23 19:35:27;;;;;;;;;;;6.30;99.90;;;;;;5174965;27;19930;-84
2022/01/23 19:37:55;;;;;;;;;;;6.30;99.90;;;;;;5115506;27;19924;-84
2022/01/23 19:40:29;;;;;;;;;;;6.30;99.90;;;;;;5095044;28;19931;-82
2022/01/23 19:43:16;;;;;;;;;;;6.40;99.90;;;;;;5064659;28;19932;-85
2022/01/23 19:45:44;;;;;;;;;;;6.40;99.90;;;;;;4959833;28;19935;-86
2022/01/23 19:48:19;;;;;;;;;;;6.50;99.90;;;;;;4716393;29;20046;-87
2022/01/23 19:50:47;;;;;;;;;;;6.50;99.90;;;;;;4466893;31;19938;-84
2022/01/23 19:58:15;;;;;;;;;;;6.50;99.90;;;;;;5177042;27;19926;-83
2022/01/23 20:00:46;;;;;;;;;;;6.40;99.90;;;;;;5139310;27;19923;-84
2022/01/23 20:03:13;;;;;;;;;;;6.40;99.90;;;;;;5098901;27;19924;-86
2022/01/23 20:05:44;;;;;;;;;;;6.30;99.90;;;;;;5085130;28;19926;-81
2022/01/23 20:08:14;;;;;;;;;;;6.40;99.90;;;;;;4924074;28;19939;-81
2022/01/23 20:16:08;;;;;;;;;;;6.40;99.90;;;;;;5180290;27;19925;-83
2022/01/23 20:18:39;;;;;;;;;;;6.40;99.90;;;;;;5129257;27;19924;-88
2022/01/23 20:21:06;;;;;;;;;;;6.30;99.90;;;;;;5137655;27;19924;-88
2022/01/23 20:23:33;;;;;;;;;;;6.30;99.90;;;;;;5099274;28;19930;-81
2022/01/23 20:29:11;;;;;;;;;;;6.30;99.90;;;;;;4931669;28;19927;-87
2022/01/23 20:31:44;;;;;;;;;;;6.20;99.90;;;;;;4801478;29;19930;-84
2022/01/23 20:34:12;;;;;;;;;;;6.20;99.90;;;;;;4617832;30;19941;-84
2022/01/23 20:36:40;;;;;;;;;;;6.30;99.90;;;;;;4415995;31;19948;-85
2022/01/23 20:44:11;;;;;;;;;;;6.20;99.90;;;;;;5178069;27;19926;-84
2022/01/23 20:46:46;;;;;;;;;;;6.20;99.90;;;;;;5137361;27;19930;-89
2022/01/23 20:49:16;;;;;;;;;;;6.10;99.90;;;;;;5116419;27;19924;-87
2022/01/23 20:52:04;;;;;;;;;;;6.10;99.90;;;;;;5087756;28;19924;-84
2022/01/23 20:58:43;;;;;;;;;;;6.10;99.90;;;;;;4939284;28;19927;-83
2022/01/23 21:01:14;;;;;;;;;;;6.10;99.90;;;;;;4827116;29;19937;-86
2022/01/23 21:03:41;;;;;;;;;;;6.00;99.90;;;;;;4573098;30;19936;-85
2022/01/23 21:11:14;;;;;;;;;;;6.00;99.90;;;;;;5170156;27;19927;-86
2022/01/23 21:13:55;;;;;;;;;;;6.10;99.90;;;;;;5117546;27;19943;-83
2022/01/23 21:16:36;;;;;;;;;;;6.10;99.90;;;;;;5111603;27;19932;-83
2022/01/23 21:19:23;;;;;;;;;;;6.00;99.90;;;;;;5093453;28;19931;-82
2022/01/23 21:22:15;;;;;;;;;;;6.10;99.90;;;;;;4971028;28;19938;-87
2022/01/23 21:33:16;;;;;;;;;;;6.10;99.90;;;;;;5155576;27;19927;-84
2022/01/23 21:41:19;;;;;;;;;;;6.10;99.90;;;;;;5062342;28;19924;-81
2022/01/23 21:43:54;;;;;;;;;;;6.10;99.90;;;;;;4955584;28;19934;-81
2022/01/23 21:46:20;;;;;;;;;;;6.20;99.90;;;;;;4846605;29;19931;-80
2022/01/23 21:48:47;;;;;;;;;;;6.10;99.90;;;;;;4583765;30;19969;-79
2022/01/23 21:56:19;;;;;;;;;;;6.20;99.90;;;;;;5175523;27;19926;-81